sensor_id;sensor_type;location;lat;lon;timestamp;P1;durP1;ratioP1;P2;durP2;ratioP2
17949;SDS011;9100;48.700;9.316;2022-09-28T00:00:14;1.2;;;1.1;;
17949;SDS011;9100;48.700;9.316;2022-09-28T00:01:15;1.2;;;1.1;;
17949;SDS011;9100;48.700;9.316;2022-09-28T00:02:15;1.2;;;1.1;;
17949;SDS011;9100;48.700;9.316;2022-09-28T00:03:09;2;;;1.2;;
17949;SDS011;9100;48.700;9.316;2022-09-28T00:03:15;2;;;1.2;;
17949;SDS011;9100;48.700;9.316;2022-09-28T00:04:14;2;;;1.2;;
17949;SDS011;9100;48.700;9.316;2022-09-28T00:05:14;2;;;1.2;;
17949;SDS011;9100;48.700;9.316;2022-09-28T00:06:15;2;;;1.2;;
17949;SDS011;9100;48.700;9.316;2022-09-28T00:07:14;2;;;1.2;;
17949;SDS011;9100;48.700;9.316;2022-09-28T00:08:09;1.1;;;1;;
17949;SDS011;9100;48.700;9.316;2022-09-28T00:08:14;1.1;;;1;;
17949;SDS011;9100;48.700;9.316;2022-09-28T00:09:15;1.1;;;1;;
17949;SDS011;9100;48.700;9.316;2022-09-28T00:10:14;1.1;;;1;;
17949;SDS011;9100;48.700;9.316;2022-09-28T00:11:15;1.1;;;1;;
17949;SDS011;9100;48.700;9.316;2022-09-28T00:12:14;1.1;;;1;;
17949;SDS011;9100;48.700;9.316;2022-09-28T00:13:09;1.3;;;1.1;;
17949;SDS011;9100;48.700;9.316;2022-09-28T00:13:14;1.3;;;1.1;;
17949;SDS011;9100;48.700;9.316;2022-09-28T00:14:14;1.3;;;1.1;;
17949;SDS011;9100;48.700;9.316;2022-09-28T00:15:14;1.3;;;1.1;;
17949;SDS011;9100;48.700;9.316;2022-09-28T00:16:15;1.3;;;1.1;;
17949;SDS011;9100;48.700;9.316;2022-09-28T00:17:14;1.3;;;1.1;;
17949;SDS011;9100;48.700;9.316;2022-09-28T00:18:09;1;;;1;;
17949;SDS011;9100;48.700;9.316;2022-09-28T00:18:14;1;;;1;;
17949;SDS011;9100;48.700;9.316;2022-09-28T00:19:14;1;;;1;;
17949;SDS011;9100;48.700;9.316;2022-09-28T00:20:14;1;;;1;;
17949;SDS011;9100;48.700;9.316;2022-09-28T00:21:15;1;;;1;;
17949;SDS011;9100;48.700;9.316;2022-09-28T00:22:14;1;;;1;;
17949;SDS011;9100;48.700;9.316;2022-09-28T00:23:09;2.2;;;1.3;;
17949;SDS011;9100;48.700;9.316;2022-09-28T00:23:14;2.2;;;1.3;;
17949;SDS011;9100;48.700;9.316;2022-09-28T00:24:14;2.2;;;1.3;;
17949;SDS011;9100;48.700;9.316;2022-09-28T00:25:14;2.2;;;1.3;;
17949;SDS011;9100;48.700;9.316;2022-09-28T00:26:14;2.2;;;1.3;;
17949;SDS011;9100;48.700;9.316;2022-09-28T00:27:14;2.2;;;1.3;;
17949;SDS011;9100;48.700;9.316;2022-09-28T00:28:09;1.2;;;1.2;;
17949;SDS011;9100;48.700;9.316;2022-09-28T00:28:14;1.2;;;1.2;;
17949;SDS011;9100;48.700;9.316;2022-09-28T00:29:16;1.2;;;1.2;;
17949;SDS011;9100;48.700;9.316;2022-09-28T00:30:14;1.2;;;1.2;;
17949;SDS011;9100;48.700;9.316;2022-09-28T00:31:14;1.2;;;1.2;;
17949;SDS011;9100;48.700;9.316;2022-09-28T00:32:14;1.2;;;1.2;;
17949;SDS011;9100;48.700;9.316;2022-09-28T00:33:09;1.4;;;1.3;;
17949;SDS011;9100;48.700;9.316;2022-09-28T00:33:15;1.4;;;1.3;;
17949;SDS011;9100;48.700;9.316;2022-09-28T00:34:14;1.4;;;1.3;;
17949;SDS011;9100;48.700;9.316;2022-09-28T00:35:15;1.4;;;1.3;;
17949;SDS011;9100;48.700;9.316;2022-09-28T00:36:14;1.4;;;1.3;;
17949;SDS011;9100;48.700;9.316;2022-09-28T00:37:15;1.4;;;1.3;;
17949;SDS011;9100;48.700;9.316;2022-09-28T00:38:09;1.2;;;1.1;;
17949;SDS011;9100;48.700;9.316;2022-09-28T00:38:14;1.2;;;1.1;;
17949;SDS011;9100;48.700;9.316;2022-09-28T00:39:15;1.2;;;1.1;;
17949;SDS011;9100;48.700;9.316;2022-09-28T00:40:14;1.2;;;1.1;;
17949;SDS011;9100;48.700;9.316;2022-09-28T00:41:14;1.2;;;1.1;;
17949;SDS011;9100;48.700;9.316;2022-09-28T00:42:15;1.2;;;1.1;;
17949;SDS011;9100;48.700;9.316;2022-09-28T00:43:15;1.5;;;1.4;;
17949;SDS011;9100;48.700;9.316;2022-09-28T00:43:17;1.5;;;1.4;;
17949;SDS011;9100;48.700;9.316;2022-09-28T00:44:33;1.5;;;1.4;;
17949;SDS011;9100;48.700;9.316;2022-09-28T00:45:14;1.5;;;1.4;;
17949;SDS011;9100;48.700;9.316;2022-09-28T00:46:15;1.5;;;1.4;;
17949;SDS011;9100;48.700;9.316;2022-09-28T00:47:16;1.5;;;1.4;;
17949;SDS011;9100;48.700;9.316;2022-09-28T00:48:09;3.1;;;1.5;;
17949;SDS011;9100;48.700;9.316;2022-09-28T00:48:14;3.1;;;1.5;;
17949;SDS011;9100;48.700;9.316;2022-09-28T00:49:15;3.1;;;1.5;;
17949;SDS011;9100;48.700;9.316;2022-09-28T00:50:17;3.1;;;1.5;;
17949;SDS011;9100;48.700;9.316;2022-09-28T00:51:14;3.1;;;1.5;;
17949;SDS011;9100;48.700;9.316;2022-09-28T00:52:15;3.1;;;1.5;;
17949;SDS011;9100;48.700;9.316;2022-09-28T00:53:10;1.2;;;1.1;;
17949;SDS011;9100;48.700;9.316;2022-09-28T00:53:16;1.2;;;1.1;;
17949;SDS011;9100;48.700;9.316;2022-09-28T00:54:14;1.2;;;1.1;;
17949;SDS011;9100;48.700;9.316;2022-09-28T00:55:16;1.2;;;1.1;;
17949;SDS011;9100;48.700;9.316;2022-09-28T00:56:15;1.2;;;1.1;;
17949;SDS011;9100;48.700;9.316;2022-09-28T00:57:14;1.2;;;1.1;;
17949;SDS011;9100;48.700;9.316;2022-09-28T00:58:10;1.4;;;1.3;;
17949;SDS011;9100;48.700;9.316;2022-09-28T00:58:21;1.4;;;1.3;;
17949;SDS011;9100;48.700;9.316;2022-09-28T00:59:14;1.4;;;1.3;;
17949;SDS011;9100;48.700;9.316;2022-09-28T01:00:14;1.4;;;1.3;;
17949;SDS011;9100;48.700;9.316;2022-09-28T01:01:14;1.4;;;1.3;;
17949;SDS011;9100;48.700;9.316;2022-09-28T01:02:14;1.4;;;1.3;;
17949;SDS011;9100;48.700;9.316;2022-09-28T01:03:09;1.4;;;1.1;;
17949;SDS011;9100;48.700;9.316;2022-09-28T01:03:15;1.4;;;1.1;;
17949;SDS011;9100;48.700;9.316;2022-09-28T01:04:14;1.4;;;1.1;;
17949;SDS011;9100;48.700;9.316;2022-09-28T01:05:14;1.4;;;1.1;;
17949;SDS011;9100;48.700;9.316;2022-09-28T01:06:16;1.4;;;1.1;;
17949;SDS011;9100;48.700;9.316;2022-09-28T01:07:14;1.4;;;1.1;;
17949;SDS011;9100;48.700;9.316;2022-09-28T01:08:09;2.7;;;1.3;;
17949;SDS011;9100;48.700;9.316;2022-09-28T01:08:14;2.7;;;1.3;;
17949;SDS011;9100;48.700;9.316;2022-09-28T01:09:14;2.7;;;1.3;;
17949;SDS011;9100;48.700;9.316;2022-09-28T01:10:14;2.7;;;1.3;;
17949;SDS011;9100;48.700;9.316;2022-09-28T01:11:15;2.7;;;1.3;;
17949;SDS011;9100;48.700;9.316;2022-09-28T01:12:14;2.7;;;1.3;;
17949;SDS011;9100;48.700;9.316;2022-09-28T01:13:09;2.5;;;0.8;;
17949;SDS011;9100;48.700;9.316;2022-09-28T01:13:14;2.5;;;0.8;;
17949;SDS011;9100;48.700;9.316;2022-09-28T01:14:14;2.5;;;0.8;;
17949;SDS011;9100;48.700;9.316;2022-09-28T01:15:14;2.5;;;0.8;;
17949;SDS011;9100;48.700;9.316;2022-09-28T01:16:17;2.5;;;0.8;;
17949;SDS011;9100;48.700;9.316;2022-09-28T01:17:15;2.5;;;0.8;;
17949;SDS011;9100;48.700;9.316;2022-09-28T01:18:10;1;;;0.7;;
17949;SDS011;9100;48.700;9.316;2022-09-28T01:18:16;1;;;0.7;;
17949;SDS011;9100;48.700;9.316;2022-09-28T01:19:18;1;;;0.7;;
17949;SDS011;9100;48.700;9.316;2022-09-28T01:20:28;1;;;0.7;;
17949;SDS011;9100;48.700;9.316;2022-09-28T01:21:15;1;;;0.7;;
17949;SDS011;9100;48.700;9.316;2022-09-28T01:22:18;1;;;0.7;;
17949;SDS011;9100;48.700;9.316;2022-09-28T01:23:15;7.7;;;0.9;;
17949;SDS011;9100;48.700;9.316;2022-09-28T01:24:18;7.7;;;0.9;;
17949;SDS011;9100;48.700;9.316;2022-09-28T01:24:22;7.7;;;0.9;;
17949;SDS011;9100;48.700;9.316;2022-09-28T01:25:15;7.7;;;0.9;;
17949;SDS011;9100;48.700;9.316;2022-09-28T01:26:18;7.7;;;0.9;;
17949;SDS011;9100;48.700;9.316;2022-09-28T01:27:15;7.7;;;0.9;;
17949;SDS011;9100;48.700;9.316;2022-09-28T01:28:10;1.9;;;1.1;;
17949;SDS011;9100;48.700;9.316;2022-09-28T01:28:15;1.9;;;1.1;;
17949;SDS011;9100;48.700;9.316;2022-09-28T01:29:16;1.9;;;1.1;;
17949;SDS011;9100;48.700;9.316;2022-09-28T01:30:15;1.9;;;1.1;;
17949;SDS011;9100;48.700;9.316;2022-09-28T01:31:15;1.9;;;1.1;;
17949;SDS011;9100;48.700;9.316;2022-09-28T01:32:16;1.9;;;1.1;;
17949;SDS011;9100;48.700;9.316;2022-09-28T01:33:09;1.7;;;0.7;;
17949;SDS011;9100;48.700;9.316;2022-09-28T01:33:17;1.7;;;0.7;;
17949;SDS011;9100;48.700;9.316;2022-09-28T01:34:16;1.7;;;0.7;;
17949;SDS011;9100;48.700;9.316;2022-09-28T01:35:16;1.7;;;0.7;;
17949;SDS011;9100;48.700;9.316;2022-09-28T01:36:16;1.7;;;0.7;;
17949;SDS011;9100;48.700;9.316;2022-09-28T01:37:15;1.7;;;0.7;;
17949;SDS011;9100;48.700;9.316;2022-09-28T01:38:11;0.9;;;0.9;;
17949;SDS011;9100;48.700;9.316;2022-09-28T01:38:15;0.9;;;0.9;;
17949;SDS011;9100;48.700;9.316;2022-09-28T01:39:15;0.9;;;0.9;;
17949;SDS011;9100;48.700;9.316;2022-09-28T01:40:15;0.9;;;0.9;;
17949;SDS011;9100;48.700;9.316;2022-09-28T01:41:14;0.9;;;0.9;;
17949;SDS011;9100;48.700;9.316;2022-09-28T01:42:16;0.9;;;0.9;;
17949;SDS011;9100;48.700;9.316;2022-09-28T01:43:10;0.9;;;0.8;;
17949;SDS011;9100;48.700;9.316;2022-09-28T01:43:16;0.9;;;0.8;;
17949;SDS011;9100;48.700;9.316;2022-09-28T01:44:15;0.9;;;0.8;;
17949;SDS011;9100;48.700;9.316;2022-09-28T01:45:15;0.9;;;0.8;;
17949;SDS011;9100;48.700;9.316;2022-09-28T01:46:15;0.9;;;0.8;;
17949;SDS011;9100;48.700;9.316;2022-09-28T01:47:15;0.9;;;0.8;;
17949;SDS011;9100;48.700;9.316;2022-09-28T01:48:09;1.9;;;1.1;;
17949;SDS011;9100;48.700;9.316;2022-09-28T01:48:15;1.9;;;1.1;;
17949;SDS011;9100;48.700;9.316;2022-09-28T01:49:15;1.9;;;1.1;;
17949;SDS011;9100;48.700;9.316;2022-09-28T01:50:15;1.9;;;1.1;;
17949;SDS011;9100;48.700;9.316;2022-09-28T01:51:15;1.9;;;1.1;;
17949;SDS011;9100;48.700;9.316;2022-09-28T01:52:15;1.9;;;1.1;;
17949;SDS011;9100;48.700;9.316;2022-09-28T01:53:10;2.8;;;1.1;;
17949;SDS011;9100;48.700;9.316;2022-09-28T01:53:15;2.8;;;1.1;;
17949;SDS011;9100;48.700;9.316;2022-09-28T01:54:16;2.8;;;1.1;;
17949;SDS011;9100;48.700;9.316;2022-09-28T01:55:16;2.8;;;1.1;;
17949;SDS011;9100;48.700;9.316;2022-09-28T01:56:16;2.8;;;1.1;;
17949;SDS011;9100;48.700;9.316;2022-09-28T01:57:16;2.8;;;1.1;;
17949;SDS011;9100;48.700;9.316;2022-09-28T01:58:10;3.3;;;0.9;;
17949;SDS011;9100;48.700;9.316;2022-09-28T01:58:16;3.3;;;0.9;;
17949;SDS011;9100;48.700;9.316;2022-09-28T01:59:15;3.3;;;0.9;;
17949;SDS011;9100;48.700;9.316;2022-09-28T02:00:14;3.3;;;0.9;;
17949;SDS011;9100;48.700;9.316;2022-09-28T02:01:15;3.3;;;0.9;;
17949;SDS011;9100;48.700;9.316;2022-09-28T02:02:15;3.3;;;0.9;;
17949;SDS011;9100;48.700;9.316;2022-09-28T02:03:10;0.8;;;0.8;;
17949;SDS011;9100;48.700;9.316;2022-09-28T02:03:15;0.8;;;0.8;;
17949;SDS011;9100;48.700;9.316;2022-09-28T02:04:15;0.8;;;0.8;;
17949;SDS011;9100;48.700;9.316;2022-09-28T02:05:15;0.8;;;0.8;;
17949;SDS011;9100;48.700;9.316;2022-09-28T02:06:15;0.8;;;0.8;;
17949;SDS011;9100;48.700;9.316;2022-09-28T02:07:15;0.8;;;0.8;;
17949;SDS011;9100;48.700;9.316;2022-09-28T02:08:10;2;;;1.2;;
17949;SDS011;9100;48.700;9.316;2022-09-28T02:08:15;2;;;1.2;;
17949;SDS011;9100;48.700;9.316;2022-09-28T02:09:15;2;;;1.2;;
17949;SDS011;9100;48.700;9.316;2022-09-28T02:10:15;2;;;1.2;;
17949;SDS011;9100;48.700;9.316;2022-09-28T02:11:15;2;;;1.2;;
17949;SDS011;9100;48.700;9.316;2022-09-28T02:12:24;2;;;1.2;;
17949;SDS011;9100;48.700;9.316;2022-09-28T02:13:11;3;;;1;;
17949;SDS011;9100;48.700;9.316;2022-09-28T02:13:15;3;;;1;;
17949;SDS011;9100;48.700;9.316;2022-09-28T02:14:15;3;;;1;;
17949;SDS011;9100;48.700;9.316;2022-09-28T02:15:16;3;;;1;;
17949;SDS011;9100;48.700;9.316;2022-09-28T02:16:16;3;;;1;;
17949;SDS011;9100;48.700;9.316;2022-09-28T02:17:14;3;;;1;;
17949;SDS011;9100;48.700;9.316;2022-09-28T02:18:09;0.8;;;0.8;;
17949;SDS011;9100;48.700;9.316;2022-09-28T02:18:15;0.8;;;0.8;;
17949;SDS011;9100;48.700;9.316;2022-09-28T02:19:15;0.8;;;0.8;;
17949;SDS011;9100;48.700;9.316;2022-09-28T02:20:15;0.8;;;0.8;;
17949;SDS011;9100;48.700;9.316;2022-09-28T02:21:15;0.8;;;0.8;;
17949;SDS011;9100;48.700;9.316;2022-09-28T02:22:17;0.8;;;0.8;;
17949;SDS011;9100;48.700;9.316;2022-09-28T02:23:09;2.9;;;0.9;;
17949;SDS011;9100;48.700;9.316;2022-09-28T02:23:14;2.9;;;0.9;;
17949;SDS011;9100;48.700;9.316;2022-09-28T02:24:16;2.9;;;0.9;;
17949;SDS011;9100;48.700;9.316;2022-09-28T02:25:17;2.9;;;0.9;;
17949;SDS011;9100;48.700;9.316;2022-09-28T02:26:14;2.9;;;0.9;;
17949;SDS011;9100;48.700;9.316;2022-09-28T02:27:15;2.9;;;0.9;;
17949;SDS011;9100;48.700;9.316;2022-09-28T02:28:10;1.1;;;0.9;;
17949;SDS011;9100;48.700;9.316;2022-09-28T02:28:14;1.1;;;0.9;;
17949;SDS011;9100;48.700;9.316;2022-09-28T02:29:14;1.1;;;0.9;;
17949;SDS011;9100;48.700;9.316;2022-09-28T02:30:14;1.1;;;0.9;;
17949;SDS011;9100;48.700;9.316;2022-09-28T02:31:14;1.1;;;0.9;;
17949;SDS011;9100;48.700;9.316;2022-09-28T02:32:15;1.1;;;0.9;;
17949;SDS011;9100;48.700;9.316;2022-09-28T02:33:10;3.7;;;1.1;;
17949;SDS011;9100;48.700;9.316;2022-09-28T02:33:17;3.7;;;1.1;;
17949;SDS011;9100;48.700;9.316;2022-09-28T02:34:14;3.7;;;1.1;;
17949;SDS011;9100;48.700;9.316;2022-09-28T02:35:15;3.7;;;1.1;;
17949;SDS011;9100;48.700;9.316;2022-09-28T02:36:14;3.7;;;1.1;;
17949;SDS011;9100;48.700;9.316;2022-09-28T02:37:14;3.7;;;1.1;;
17949;SDS011;9100;48.700;9.316;2022-09-28T02:38:09;1.9;;;0.9;;
17949;SDS011;9100;48.700;9.316;2022-09-28T02:38:14;1.9;;;0.9;;
17949;SDS011;9100;48.700;9.316;2022-09-28T02:39:15;1.9;;;0.9;;
17949;SDS011;9100;48.700;9.316;2022-09-28T02:40:15;1.9;;;0.9;;
17949;SDS011;9100;48.700;9.316;2022-09-28T02:41:18;1.9;;;0.9;;
17949;SDS011;9100;48.700;9.316;2022-09-28T02:42:15;1.9;;;0.9;;
17949;SDS011;9100;48.700;9.316;2022-09-28T02:43:12;1.5;;;0.9;;
17949;SDS011;9100;48.700;9.316;2022-09-28T02:43:15;1.5;;;0.9;;
17949;SDS011;9100;48.700;9.316;2022-09-28T02:44:17;1.5;;;0.9;;
17949;SDS011;9100;48.700;9.316;2022-09-28T02:45:15;1.5;;;0.9;;
17949;SDS011;9100;48.700;9.316;2022-09-28T02:46:16;1.5;;;0.9;;
17949;SDS011;9100;48.700;9.316;2022-09-28T02:47:15;1.5;;;0.9;;
17949;SDS011;9100;48.700;9.316;2022-09-28T02:48:14;0.8;;;0.8;;
17949;SDS011;9100;48.700;9.316;2022-09-28T02:48:18;0.8;;;0.8;;
17949;SDS011;9100;48.700;9.316;2022-09-28T02:49:17;0.8;;;0.8;;
17949;SDS011;9100;48.700;9.316;2022-09-28T02:50:18;0.8;;;0.8;;
17949;SDS011;9100;48.700;9.316;2022-09-28T02:51:17;0.8;;;0.8;;
17949;SDS011;9100;48.700;9.316;2022-09-28T02:52:20;0.8;;;0.8;;
17949;SDS011;9100;48.700;9.316;2022-09-28T02:53:18;3;;;1.1;;
17949;SDS011;9100;48.700;9.316;2022-09-28T02:53:22;3;;;1.1;;
17949;SDS011;9100;48.700;9.316;2022-09-28T02:54:20;3;;;1.1;;
17949;SDS011;9100;48.700;9.316;2022-09-28T02:55:19;3;;;1.1;;
17949;SDS011;9100;48.700;9.316;2022-09-28T02:56:19;3;;;1.1;;
17949;SDS011;9100;48.700;9.316;2022-09-28T02:57:17;3;;;1.1;;
17949;SDS011;9100;48.700;9.316;2022-09-28T02:58:14;1.1;;;1;;
17949;SDS011;9100;48.700;9.316;2022-09-28T02:58:18;1.1;;;1;;
17949;SDS011;9100;48.700;9.316;2022-09-28T02:59:16;1.1;;;1;;
17949;SDS011;9100;48.700;9.316;2022-09-28T03:00:16;1.1;;;1;;
17949;SDS011;9100;48.700;9.316;2022-09-28T03:01:17;1.1;;;1;;
17949;SDS011;9100;48.700;9.316;2022-09-28T03:02:18;1.1;;;1;;
17949;SDS011;9100;48.700;9.316;2022-09-28T03:03:11;2.9;;;1.3;;
17949;SDS011;9100;48.700;9.316;2022-09-28T03:03:16;2.9;;;1.3;;
17949;SDS011;9100;48.700;9.316;2022-09-28T03:04:16;2.9;;;1.3;;
17949;SDS011;9100;48.700;9.316;2022-09-28T03:05:16;2.9;;;1.3;;
17949;SDS011;9100;48.700;9.316;2022-09-28T03:06:17;2.9;;;1.3;;
17949;SDS011;9100;48.700;9.316;2022-09-28T03:07:15;2.9;;;1.3;;
17949;SDS011;9100;48.700;9.316;2022-09-28T03:08:10;3.5;;;1.1;;
17949;SDS011;9100;48.700;9.316;2022-09-28T03:08:16;3.5;;;1.1;;
17949;SDS011;9100;48.700;9.316;2022-09-28T03:09:17;3.5;;;1.1;;
17949;SDS011;9100;48.700;9.316;2022-09-28T03:10:15;3.5;;;1.1;;
17949;SDS011;9100;48.700;9.316;2022-09-28T03:11:15;3.5;;;1.1;;
17949;SDS011;9100;48.700;9.316;2022-09-28T03:12:14;3.5;;;1.1;;
17949;SDS011;9100;48.700;9.316;2022-09-28T03:13:09;1.3;;;1;;
17949;SDS011;9100;48.700;9.316;2022-09-28T03:13:15;1.3;;;1;;
17949;SDS011;9100;48.700;9.316;2022-09-28T03:14:14;1.3;;;1;;
17949;SDS011;9100;48.700;9.316;2022-09-28T03:15:18;1.3;;;1;;
17949;SDS011;9100;48.700;9.316;2022-09-28T03:16:15;1.3;;;1;;
17949;SDS011;9100;48.700;9.316;2022-09-28T03:17:15;1.3;;;1;;
17949;SDS011;9100;48.700;9.316;2022-09-28T03:18:09;1.4;;;0.9;;
17949;SDS011;9100;48.700;9.316;2022-09-28T03:18:15;1.4;;;0.9;;
17949;SDS011;9100;48.700;9.316;2022-09-28T03:19:15;1.4;;;0.9;;
17949;SDS011;9100;48.700;9.316;2022-09-28T03:20:14;1.4;;;0.9;;
17949;SDS011;9100;48.700;9.316;2022-09-28T03:21:14;1.4;;;0.9;;
17949;SDS011;9100;48.700;9.316;2022-09-28T03:22:14;1.4;;;0.9;;
17949;SDS011;9100;48.700;9.316;2022-09-28T03:23:09;2;;;1.1;;
17949;SDS011;9100;48.700;9.316;2022-09-28T03:23:14;2;;;1.1;;
17949;SDS011;9100;48.700;9.316;2022-09-28T03:24:15;2;;;1.1;;
17949;SDS011;9100;48.700;9.316;2022-09-28T03:25:14;2;;;1.1;;
17949;SDS011;9100;48.700;9.316;2022-09-28T03:26:14;2;;;1.1;;
17949;SDS011;9100;48.700;9.316;2022-09-28T03:27:14;2;;;1.1;;
17949;SDS011;9100;48.700;9.316;2022-09-28T03:28:09;3.1;;;1.2;;
17949;SDS011;9100;48.700;9.316;2022-09-28T03:28:14;3.1;;;1.2;;
17949;SDS011;9100;48.700;9.316;2022-09-28T03:29:14;3.1;;;1.2;;
17949;SDS011;9100;48.700;9.316;2022-09-28T03:30:15;3.1;;;1.2;;
17949;SDS011;9100;48.700;9.316;2022-09-28T03:31:14;3.1;;;1.2;;
17949;SDS011;9100;48.700;9.316;2022-09-28T03:32:14;3.1;;;1.2;;
17949;SDS011;9100;48.700;9.316;2022-09-28T03:33:09;3.1;;;1.2;;
17949;SDS011;9100;48.700;9.316;2022-09-28T03:33:15;3.1;;;1.2;;
17949;SDS011;9100;48.700;9.316;2022-09-28T03:34:15;3.1;;;1.2;;
17949;SDS011;9100;48.700;9.316;2022-09-28T03:35:15;3.1;;;1.2;;
17949;SDS011;9100;48.700;9.316;2022-09-28T03:36:14;3.1;;;1.2;;
17949;SDS011;9100;48.700;9.316;2022-09-28T03:37:14;3.1;;;1.2;;
17949;SDS011;9100;48.700;9.316;2022-09-28T03:38:09;2.6;;;1;;
17949;SDS011;9100;48.700;9.316;2022-09-28T03:38:14;2.6;;;1;;
17949;SDS011;9100;48.700;9.316;2022-09-28T03:39:14;2.6;;;1;;
17949;SDS011;9100;48.700;9.316;2022-09-28T03:40:15;2.6;;;1;;
17949;SDS011;9100;48.700;9.316;2022-09-28T03:41:15;2.6;;;1;;
17949;SDS011;9100;48.700;9.316;2022-09-28T03:42:14;2.6;;;1;;
17949;SDS011;9100;48.700;9.316;2022-09-28T03:43:09;1.5;;;1;;
17949;SDS011;9100;48.700;9.316;2022-09-28T03:43:14;1.5;;;1;;
17949;SDS011;9100;48.700;9.316;2022-09-28T03:44:14;1.5;;;1;;
17949;SDS011;9100;48.700;9.316;2022-09-28T03:45:14;1.5;;;1;;
17949;SDS011;9100;48.700;9.316;2022-09-28T03:46:14;1.5;;;1;;
17949;SDS011;9100;48.700;9.316;2022-09-28T03:47:15;1.5;;;1;;
17949;SDS011;9100;48.700;9.316;2022-09-28T03:48:09;1.7;;;1.1;;
17949;SDS011;9100;48.700;9.316;2022-09-28T03:48:15;1.7;;;1.1;;
17949;SDS011;9100;48.700;9.316;2022-09-28T03:49:14;1.7;;;1.1;;
17949;SDS011;9100;48.700;9.316;2022-09-28T03:50:14;1.7;;;1.1;;
17949;SDS011;9100;48.700;9.316;2022-09-28T03:51:14;1.7;;;1.1;;
17949;SDS011;9100;48.700;9.316;2022-09-28T03:52:14;1.7;;;1.1;;
17949;SDS011;9100;48.700;9.316;2022-09-28T03:53:09;1.6;;;1.1;;
17949;SDS011;9100;48.700;9.316;2022-09-28T03:53:15;1.6;;;1.1;;
17949;SDS011;9100;48.700;9.316;2022-09-28T03:54:14;1.6;;;1.1;;
17949;SDS011;9100;48.700;9.316;2022-09-28T03:55:14;1.6;;;1.1;;
17949;SDS011;9100;48.700;9.316;2022-09-28T03:56:14;1.6;;;1.1;;
17949;SDS011;9100;48.700;9.316;2022-09-28T03:57:15;1.6;;;1.1;;
17949;SDS011;9100;48.700;9.316;2022-09-28T03:58:09;3.4;;;0.9;;
17949;SDS011;9100;48.700;9.316;2022-09-28T03:58:15;3.4;;;0.9;;
17949;SDS011;9100;48.700;9.316;2022-09-28T03:59:15;3.4;;;0.9;;
17949;SDS011;9100;48.700;9.316;2022-09-28T04:00:15;3.4;;;0.9;;
17949;SDS011;9100;48.700;9.316;2022-09-28T04:01:14;3.4;;;0.9;;
17949;SDS011;9100;48.700;9.316;2022-09-28T04:02:15;3.4;;;0.9;;
17949;SDS011;9100;48.700;9.316;2022-09-28T04:03:09;1.2;;;1;;
17949;SDS011;9100;48.700;9.316;2022-09-28T04:03:15;1.2;;;1;;
17949;SDS011;9100;48.700;9.316;2022-09-28T04:04:14;1.2;;;1;;
17949;SDS011;9100;48.700;9.316;2022-09-28T04:05:14;1.2;;;1;;
17949;SDS011;9100;48.700;9.316;2022-09-28T04:06:14;1.2;;;1;;
17949;SDS011;9100;48.700;9.316;2022-09-28T04:07:15;1.2;;;1;;
17949;SDS011;9100;48.700;9.316;2022-09-28T04:08:09;1.7;;;0.7;;
17949;SDS011;9100;48.700;9.316;2022-09-28T04:08:15;1.7;;;0.7;;
17949;SDS011;9100;48.700;9.316;2022-09-28T04:09:15;1.7;;;0.7;;
17949;SDS011;9100;48.700;9.316;2022-09-28T04:10:15;1.7;;;0.7;;
17949;SDS011;9100;48.700;9.316;2022-09-28T04:11:15;1.7;;;0.7;;
17949;SDS011;9100;48.700;9.316;2022-09-28T04:12:15;1.7;;;0.7;;
17949;SDS011;9100;48.700;9.316;2022-09-28T04:13:09;2.8;;;0.8;;
17949;SDS011;9100;48.700;9.316;2022-09-28T04:13:15;2.8;;;0.8;;
17949;SDS011;9100;48.700;9.316;2022-09-28T04:14:14;2.8;;;0.8;;
17949;SDS011;9100;48.700;9.316;2022-09-28T04:15:15;2.8;;;0.8;;
17949;SDS011;9100;48.700;9.316;2022-09-28T04:16:15;2.8;;;0.8;;
17949;SDS011;9100;48.700;9.316;2022-09-28T04:17:14;2.8;;;0.8;;
17949;SDS011;9100;48.700;9.316;2022-09-28T04:18:10;1.1;;;0.7;;
17949;SDS011;9100;48.700;9.316;2022-09-28T04:18:15;1.1;;;0.7;;
17949;SDS011;9100;48.700;9.316;2022-09-28T04:19:14;1.1;;;0.7;;
17949;SDS011;9100;48.700;9.316;2022-09-28T04:20:15;1.1;;;0.7;;
17949;SDS011;9100;48.700;9.316;2022-09-28T04:21:15;1.1;;;0.7;;
17949;SDS011;9100;48.700;9.316;2022-09-28T04:22:14;1.1;;;0.7;;
17949;SDS011;9100;48.700;9.316;2022-09-28T04:23:09;0.9;;;0.9;;
17949;SDS011;9100;48.700;9.316;2022-09-28T04:23:15;0.9;;;0.9;;
17949;SDS011;9100;48.700;9.316;2022-09-28T04:24:15;0.9;;;0.9;;
17949;SDS011;9100;48.700;9.316;2022-09-28T04:25:15;0.9;;;0.9;;
17949;SDS011;9100;48.700;9.316;2022-09-28T04:26:16;0.9;;;0.9;;
17949;SDS011;9100;48.700;9.316;2022-09-28T04:27:15;0.9;;;0.9;;
17949;SDS011;9100;48.700;9.316;2022-09-28T04:28:09;1.4;;;1;;
17949;SDS011;9100;48.700;9.316;2022-09-28T04:28:15;1.4;;;1;;
17949;SDS011;9100;48.700;9.316;2022-09-28T04:29:15;1.4;;;1;;
17949;SDS011;9100;48.700;9.316;2022-09-28T04:30:15;1.4;;;1;;
17949;SDS011;9100;48.700;9.316;2022-09-28T04:31:15;1.4;;;1;;
17949;SDS011;9100;48.700;9.316;2022-09-28T04:32:14;1.4;;;1;;
17949;SDS011;9100;48.700;9.316;2022-09-28T04:33:09;1.1;;;0.9;;
17949;SDS011;9100;48.700;9.316;2022-09-28T04:33:15;1.1;;;0.9;;
17949;SDS011;9100;48.700;9.316;2022-09-28T04:34:15;1.1;;;0.9;;
17949;SDS011;9100;48.700;9.316;2022-09-28T04:35:15;1.1;;;0.9;;
17949;SDS011;9100;48.700;9.316;2022-09-28T04:36:15;1.1;;;0.9;;
17949;SDS011;9100;48.700;9.316;2022-09-28T04:37:15;1.1;;;0.9;;
17949;SDS011;9100;48.700;9.316;2022-09-28T04:38:09;0.8;;;0.8;;
17949;SDS011;9100;48.700;9.316;2022-09-28T04:38:15;0.8;;;0.8;;
17949;SDS011;9100;48.700;9.316;2022-09-28T04:39:15;0.8;;;0.8;;
17949;SDS011;9100;48.700;9.316;2022-09-28T04:40:15;0.8;;;0.8;;
17949;SDS011;9100;48.700;9.316;2022-09-28T04:41:14;0.8;;;0.8;;
17949;SDS011;9100;48.700;9.316;2022-09-28T04:42:14;0.8;;;0.8;;
17949;SDS011;9100;48.700;9.316;2022-09-28T04:43:09;1.2;;;0.9;;
17949;SDS011;9100;48.700;9.316;2022-09-28T04:43:15;1.2;;;0.9;;
17949;SDS011;9100;48.700;9.316;2022-09-28T04:44:15;1.2;;;0.9;;
17949;SDS011;9100;48.700;9.316;2022-09-28T04:45:15;1.2;;;0.9;;
17949;SDS011;9100;48.700;9.316;2022-09-28T04:46:15;1.2;;;0.9;;
17949;SDS011;9100;48.700;9.316;2022-09-28T04:47:15;1.2;;;0.9;;
17949;SDS011;9100;48.700;9.316;2022-09-28T04:48:09;3.3;;;1.4;;
17949;SDS011;9100;48.700;9.316;2022-09-28T04:48:14;3.3;;;1.4;;
17949;SDS011;9100;48.700;9.316;2022-09-28T04:49:15;3.3;;;1.4;;
17949;SDS011;9100;48.700;9.316;2022-09-28T04:50:15;3.3;;;1.4;;
17949;SDS011;9100;48.700;9.316;2022-09-28T04:51:14;3.3;;;1.4;;
17949;SDS011;9100;48.700;9.316;2022-09-28T04:52:15;3.3;;;1.4;;
17949;SDS011;9100;48.700;9.316;2022-09-28T04:53:09;0.9;;;0.9;;
17949;SDS011;9100;48.700;9.316;2022-09-28T04:53:15;0.9;;;0.9;;
17949;SDS011;9100;48.700;9.316;2022-09-28T04:54:15;0.9;;;0.9;;
17949;SDS011;9100;48.700;9.316;2022-09-28T04:55:15;0.9;;;0.9;;
17949;SDS011;9100;48.700;9.316;2022-09-28T04:56:15;0.9;;;0.9;;
17949;SDS011;9100;48.700;9.316;2022-09-28T04:57:14;0.9;;;0.9;;
17949;SDS011;9100;48.700;9.316;2022-09-28T04:58:09;0.9;;;0.9;;
17949;SDS011;9100;48.700;9.316;2022-09-28T04:58:15;0.9;;;0.9;;
17949;SDS011;9100;48.700;9.316;2022-09-28T04:59:15;0.9;;;0.9;;
17949;SDS011;9100;48.700;9.316;2022-09-28T05:00:15;0.9;;;0.9;;
17949;SDS011;9100;48.700;9.316;2022-09-28T05:01:15;0.9;;;0.9;;
17949;SDS011;9100;48.700;9.316;2022-09-28T05:02:15;0.9;;;0.9;;
17949;SDS011;9100;48.700;9.316;2022-09-28T05:03:09;2;;;1.1;;
17949;SDS011;9100;48.700;9.316;2022-09-28T05:03:15;2;;;1.1;;
17949;SDS011;9100;48.700;9.316;2022-09-28T05:04:14;2;;;1.1;;
17949;SDS011;9100;48.700;9.316;2022-09-28T05:05:15;2;;;1.1;;
17949;SDS011;9100;48.700;9.316;2022-09-28T05:06:15;2;;;1.1;;
17949;SDS011;9100;48.700;9.316;2022-09-28T05:07:15;2;;;1.1;;
17949;SDS011;9100;48.700;9.316;2022-09-28T05:08:10;1.9;;;1.1;;
17949;SDS011;9100;48.700;9.316;2022-09-28T05:08:15;1.9;;;1.1;;
17949;SDS011;9100;48.700;9.316;2022-09-28T05:09:15;1.9;;;1.1;;
17949;SDS011;9100;48.700;9.316;2022-09-28T05:10:15;1.9;;;1.1;;
17949;SDS011;9100;48.700;9.316;2022-09-28T05:11:14;1.9;;;1.1;;
17949;SDS011;9100;48.700;9.316;2022-09-28T05:12:15;1.9;;;1.1;;
17949;SDS011;9100;48.700;9.316;2022-09-28T05:13:11;1.1;;;1;;
17949;SDS011;9100;48.700;9.316;2022-09-28T05:13:15;1.1;;;1;;
17949;SDS011;9100;48.700;9.316;2022-09-28T05:14:15;1.1;;;1;;
17949;SDS011;9100;48.700;9.316;2022-09-28T05:15:15;1.1;;;1;;
17949;SDS011;9100;48.700;9.316;2022-09-28T05:16:15;1.1;;;1;;
17949;SDS011;9100;48.700;9.316;2022-09-28T05:17:15;1.1;;;1;;
17949;SDS011;9100;48.700;9.316;2022-09-28T05:18:09;1.3;;;1;;
17949;SDS011;9100;48.700;9.316;2022-09-28T05:18:15;1.3;;;1;;